createdAt,value
2017-12-14T00:00:48.906Z,52.11
2017-12-14T00:01:48.898Z,52.11
2017-12-14T00:02:48.894Z,52.20
2017-12-14T00:03:48.888Z,51.92
2017-12-14T00:04:48.879Z,51.92
2017-12-14T00:05:48.877Z,52.01
2017-12-14T00:06:48.874Z,52.01
2017-12-14T00:07:48.861Z,52.20
2017-12-14T00:08:48.856Z,52.11
2017-12-14T00:09:48.850Z,51.92
2017-12-14T00:10:48.855Z,52.11
2017-12-14T00:11:48.835Z,52.11
2017-12-14T00:12:48.831Z,51.92
2017-12-14T00:13:48.824Z,51.92
2017-12-14T00:14:48.819Z,52.11
2017-12-14T00:15:48.810Z,52.20
2017-12-14T00:16:48.805Z,52.01
2017-12-14T00:17:48.797Z,52.49
2017-12-14T00:18:48.792Z,52.49
2017-12-14T00:19:48.787Z,52.40
2017-12-14T00:20:48.780Z,52.40
2017-12-14T00:21:48.776Z,52.40
2017-12-14T00:22:48.768Z,52.40
2017-12-14T00:23:48.808Z,52.30
2017-12-14T00:24:48.754Z,52.11
2017-12-14T00:25:48.750Z,52.40
2017-12-14T00:26:48.744Z,52.30
2017-12-14T00:27:48.736Z,52.30
2017-12-14T00:28:48.739Z,52.40
2017-12-14T00:29:48.725Z,52.30
2017-12-14T00:30:48.719Z,52.30
2017-12-14T00:31:48.712Z,52.40
2017-12-14T00:32:48.706Z,52.40
2017-12-14T00:33:48.700Z,52.40
2017-12-14T00:34:48.694Z,52.01
2017-12-14T00:35:48.687Z,52.49
2017-12-14T00:36:48.682Z,52.40
2017-12-14T00:37:48.676Z,52.49
2017-12-14T00:38:48.669Z,51.92
2017-12-14T00:39:48.667Z,52.49
2017-12-14T00:40:48.656Z,52.01
2017-12-14T00:41:48.652Z,51.82
2017-12-14T00:42:48.645Z,52.20
2017-12-14T00:43:48.637Z,52.11
2017-12-14T00:44:48.630Z,52.11
2017-12-14T00:45:48.626Z,52.11
2017-12-14T00:46:48.618Z,52.11
2017-12-14T00:47:48.613Z,52.01
2017-12-14T00:48:48.605Z,52.01
2017-12-14T00:49:48.602Z,52.01
2017-12-14T00:50:48.638Z,52.20
2017-12-14T00:51:48.586Z,52.11
2017-12-14T00:52:48.580Z,52.01
2017-12-14T00:53:48.576Z,52.20
2017-12-14T00:54:48.568Z,52.20
2017-12-14T00:55:48.564Z,52.01
2017-12-14T00:56:48.555Z,52.01
2017-12-14T00:57:48.551Z,52.01
2017-12-14T00:58:48.544Z,52.11
2017-12-14T00:59:48.536Z,52.01
2017-12-14T01:00:48.533Z,52.11
2017-12-14T01:01:48.525Z,52.01
2017-12-14T01:02:48.519Z,52.40
2017-12-14T01:03:48.512Z,52.40
2017-12-14T01:04:48.507Z,52.49
2017-12-14T01:05:48.501Z,52.49
2017-12-14T01:06:48.494Z,52.40
2017-12-14T01:07:48.487Z,52.01
2017-12-14T01:08:48.483Z,52.01
2017-12-14T01:09:48.476Z,52.01
2017-12-14T01:10:48.469Z,52.01
2017-12-14T01:11:48.463Z,52.20
2017-12-14T01:12:48.458Z,52.20
2017-12-14T01:13:48.449Z,52.11
2017-12-14T01:14:48.443Z,52.49
2017-12-14T01:15:48.436Z,52.11
2017-12-14T01:16:48.431Z,52.40
2017-12-14T01:17:48.426Z,52.49
2017-12-14T01:18:48.419Z,52.01
2017-12-14T01:19:48.414Z,52.20
2017-12-14T01:20:48.407Z,52.20
2017-12-14T01:21:48.405Z,52.20
2017-12-14T01:22:48.393Z,52.40
2017-12-14T01:23:48.388Z,52.30
2017-12-14T01:24:48.381Z,52.20
2017-12-14T01:25:48.378Z,52.11
2017-12-14T01:26:48.368Z,52.20
2017-12-14T01:27:48.363Z,52.11
2017-12-14T01:28:48.356Z,51.92
2017-12-14T01:29:48.353Z,51.92
2017-12-14T01:30:48.344Z,52.11
2017-12-14T01:31:48.339Z,52.11
2017-12-14T01:32:48.335Z,51.92
2017-12-14T01:33:48.326Z,52.40
2017-12-14T01:34:48.319Z,52.59
2017-12-14T01:35:48.313Z,52.78
2017-12-14T01:36:48.308Z,52.69
2017-12-14T01:37:48.300Z,52.49
2017-12-14T01:38:48.295Z,52.49
2017-12-14T01:39:48.288Z,52.49
2017-12-14T01:40:48.281Z,52.69
2017-12-14T01:41:48.276Z,52.49
2017-12-14T01:42:48.268Z,52.59
2017-12-14T01:43:48.263Z,52.59
2017-12-14T01:44:48.257Z,52.49
2017-12-14T01:45:48.253Z,52.69
2017-12-14T01:46:48.244Z,52.69
2017-12-14T01:47:48.237Z,52.69
2017-12-14T01:48:48.231Z,52.59
2017-12-14T01:49:48.225Z,52.40
2017-12-14T01:50:48.219Z,52.59
2017-12-14T01:51:48.212Z,52.75
2017-12-14T01:52:48.208Z,52.69
2017-12-14T01:53:48.202Z,52.75
2017-12-14T01:54:48.203Z,53.07
2017-12-14T01:55:48.187Z,53.05
2017-12-14T01:56:48.182Z,53.23
2017-12-14T01:57:48.176Z,53.17
2017-12-14T01:58:48.167Z,52.97
2017-12-14T01:59:48.164Z,53.05
2017-12-14T02:00:48.157Z,52.95
2017-12-14T02:01:48.150Z,53.17
2017-12-14T02:02:48.142Z,52.95
2017-12-14T02:03:48.137Z,53.17
2017-12-14T02:04:48.131Z,53.14
2017-12-14T02:05:48.125Z,53.23
2017-12-14T02:06:48.120Z,53.05
2017-12-14T02:07:48.112Z,53.23
2017-12-14T02:08:48.106Z,52.75
2017-12-14T02:09:48.105Z,52.56
2017-12-14T02:10:48.093Z,52.75
2017-12-14T02:11:48.087Z,52.75
2017-12-14T02:12:48.080Z,52.37
2017-12-14T02:13:48.077Z,52.37
2017-12-14T02:14:48.069Z,52.75
2017-12-14T02:15:48.063Z,52.66
2017-12-14T02:16:48.064Z,52.59
2017-12-14T02:17:48.050Z,52.56
2017-12-14T02:18:48.041Z,52.37
2017-12-14T02:19:48.038Z,52.47
2017-12-14T02:20:48.031Z,52.56
2017-12-14T02:21:48.025Z,52.56
2017-12-14T02:22:48.018Z,52.66
2017-12-14T02:23:48.012Z,52.37
2017-12-14T02:24:48.007Z,52.56
2017-12-14T02:25:48.000Z,52.56
2017-12-14T02:26:47.992Z,52.56
2017-12-14T02:27:47.989Z,52.56
2017-12-14T02:28:47.981Z,52.27
2017-12-14T02:29:47.975Z,52.37
2017-12-14T02:30:47.968Z,52.75
2017-12-14T02:31:47.964Z,53.23
2017-12-14T02:32:47.955Z,53.14
2017-12-14T02:33:47.950Z,53.14
2017-12-14T02:34:47.941Z,52.97
2017-12-14T02:35:47.941Z,52.85
2017-12-14T02:36:47.930Z,52.85
2017-12-14T02:37:47.925Z,52.85
2017-12-14T02:38:47.917Z,52.56
2017-12-14T02:39:47.914Z,52.97
2017-12-14T02:40:47.905Z,52.69
2017-12-14T02:41:47.900Z,52.95
2017-12-14T02:42:47.890Z,52.85
2017-12-14T02:43:47.885Z,52.87
2017-12-14T02:44:47.878Z,52.85
2017-12-14T02:45:47.877Z,52.85
2017-12-14T02:46:47.866Z,52.66
2017-12-14T02:47:47.862Z,53.07
2017-12-14T02:48:47.855Z,53.05
2017-12-14T02:49:47.846Z,53.05
2017-12-14T02:50:47.842Z,53.14
2017-12-14T02:51:47.838Z,52.75
2017-12-14T02:52:47.831Z,52.66
2017-12-14T02:53:47.823Z,52.66
2017-12-14T02:54:47.817Z,52.69
2017-12-14T02:55:47.811Z,52.56
2017-12-14T02:56:47.804Z,52.75
2017-12-14T02:57:47.797Z,52.66
2017-12-14T02:58:47.794Z,52.75
2017-12-14T02:59:47.786Z,52.66
2017-12-14T03:00:47.781Z,52.75
2017-12-14T03:01:47.773Z,52.85
2017-12-14T03:02:47.767Z,52.75
2017-12-14T03:03:47.759Z,52.75
2017-12-14T03:04:47.753Z,52.66
2017-12-14T03:05:47.749Z,52.56
2017-12-14T03:06:47.740Z,52.85
2017-12-14T03:07:47.734Z,52.85
2017-12-14T03:08:47.729Z,52.56
2017-12-14T03:09:47.722Z,52.66
2017-12-14T03:10:47.716Z,52.75
2017-12-14T03:11:47.711Z,52.85
2017-12-14T03:12:47.703Z,52.85
2017-12-14T03:13:47.697Z,52.75
2017-12-14T03:14:47.691Z,52.85
2017-12-14T03:15:47.684Z,52.85
2017-12-14T03:16:47.679Z,53.05
2017-12-14T03:17:47.673Z,53.14
2017-12-14T03:18:47.665Z,53.23
2017-12-14T03:19:47.657Z,53.05
2017-12-14T03:20:47.655Z,53.05
2017-12-14T03:21:47.654Z,53.23
2017-12-14T03:22:47.640Z,53.62
2017-12-14T03:23:47.635Z,53.53
2017-12-14T03:24:47.630Z,53.43
2017-12-14T03:25:47.623Z,53.81
2017-12-14T03:26:47.614Z,53.62
2017-12-14T03:27:47.609Z,53.62
2017-12-14T03:28:47.620Z,53.53
2017-12-14T03:29:47.598Z,53.53
2017-12-14T03:30:47.592Z,53.72
2017-12-14T03:31:47.582Z,53.62
2017-12-14T03:32:47.576Z,53.33
2017-12-14T03:33:47.572Z,53.62
2017-12-14T03:34:47.563Z,53.53
2017-12-14T03:35:47.557Z,53.53
2017-12-14T03:36:47.551Z,53.53
2017-12-14T03:37:47.546Z,53.62
2017-12-14T03:38:47.539Z,53.62
2017-12-14T03:39:47.531Z,53.33
2017-12-14T03:40:47.526Z,53.33
2017-12-14T03:41:47.521Z,53.43
2017-12-14T03:42:47.514Z,53.53
2017-12-14T03:43:47.507Z,53.53
2017-12-14T03:44:47.500Z,53.62
2017-12-14T03:45:47.538Z,53.43
2017-12-14T03:46:47.518Z,53.43
2017-12-14T03:47:47.482Z,53.62
2017-12-14T03:48:47.476Z,53.62
2017-12-14T03:49:47.482Z,53.53
2017-12-14T03:50:47.464Z,53.33
2017-12-14T03:51:47.458Z,53.62
2017-12-14T03:52:47.450Z,53.62
2017-12-14T03:53:47.449Z,53.43
2017-12-14T03:54:47.437Z,53.43
2017-12-14T03:55:47.431Z,53.53
2017-12-14T03:56:47.428Z,53.33
2017-12-14T03:57:47.419Z,53.43
2017-12-14T03:58:47.412Z,53.33
2017-12-14T03:59:47.411Z,53.43
2017-12-14T04:00:47.400Z,53.43
2017-12-14T04:01:47.392Z,53.43
2017-12-14T04:02:47.387Z,53.53
2017-12-14T04:03:47.387Z,53.43
2017-12-14T04:04:47.374Z,53.43
2017-12-14T04:05:47.368Z,53.45
2017-12-14T04:06:47.364Z,53.45
2017-12-14T04:07:47.356Z,53.74
2017-12-14T04:08:47.349Z,53.36
2017-12-14T04:09:47.342Z,53.65
2017-12-14T04:10:47.336Z,53.74
2017-12-14T04:11:47.330Z,53.55
2017-12-14T04:12:47.325Z,53.27
2017-12-14T04:13:47.318Z,53.27
2017-12-14T04:14:47.313Z,53.17
2017-12-14T04:15:47.305Z,53.17
2017-12-14T04:16:47.298Z,53.07
2017-12-14T04:17:47.294Z,53.07
2017-12-14T04:18:47.288Z,52.78
2017-12-14T04:19:47.279Z,52.78
2017-12-14T04:20:47.283Z,52.81
2017-12-14T04:21:47.267Z,52.91
2017-12-14T04:22:47.265Z,52.81
2017-12-14T04:23:47.254Z,52.81
2017-12-14T04:24:47.255Z,52.71
2017-12-14T04:25:47.242Z,53.09
2017-12-14T04:26:47.237Z,53.09
2017-12-14T04:27:47.232Z,53.00
2017-12-14T04:28:47.225Z,52.81
2017-12-14T04:29:47.219Z,52.91
2017-12-14T04:30:47.214Z,52.81
2017-12-14T04:31:47.207Z,53.19
2017-12-14T04:32:47.202Z,53.00
2017-12-14T04:33:47.192Z,53.00
2017-12-14T04:34:47.189Z,53.19
2017-12-14T04:35:47.181Z,53.19
2017-12-14T04:36:47.175Z,53.09
2017-12-14T04:37:47.170Z,53.19
2017-12-14T04:38:47.164Z,53.58
2017-12-14T04:39:47.155Z,53.48
2017-12-14T04:40:47.150Z,53.48
2017-12-14T04:41:47.145Z,53.39
2017-12-14T04:42:47.138Z,53.67
2017-12-14T04:43:47.132Z,53.48
2017-12-14T04:44:47.124Z,53.39
2017-12-14T04:45:47.120Z,53.00
2017-12-14T04:46:47.116Z,52.78
2017-12-14T04:47:47.106Z,53.65
2017-12-14T04:48:47.100Z,53.65
2017-12-14T04:49:47.093Z,53.45
2017-12-14T04:50:47.090Z,53.55
2017-12-14T04:51:47.079Z,53.55
2017-12-14T04:52:47.072Z,53.45
2017-12-14T04:53:47.068Z,53.45
2017-12-14T04:54:47.057Z,53.45
2017-12-14T04:55:47.052Z,53.55
2017-12-14T04:56:47.044Z,53.17
2017-12-14T04:57:47.088Z,52.97
2017-12-14T04:58:47.028Z,52.87
2017-12-14T04:59:47.021Z,52.69
2017-12-14T05:00:47.015Z,52.91
2017-12-14T05:01:47.009Z,52.91
2017-12-14T05:02:46.999Z,53.00
2017-12-14T05:03:46.993Z,52.61
2017-12-14T05:04:46.986Z,52.61
2017-12-14T05:05:46.978Z,52.52
2017-12-14T05:06:46.978Z,52.61
2017-12-14T05:07:46.963Z,52.52
2017-12-14T05:08:46.956Z,52.71
2017-12-14T05:09:46.950Z,52.52
2017-12-14T05:10:46.940Z,52.52
2017-12-14T05:11:46.933Z,52.52
2017-12-14T05:12:46.928Z,52.42
2017-12-14T05:13:46.919Z,52.52
2017-12-14T05:14:46.910Z,52.52
2017-12-14T05:15:46.904Z,52.52
2017-12-14T05:16:46.895Z,52.52
2017-12-14T05:17:46.890Z,52.52
2017-12-14T05:18:46.879Z,52.61
2017-12-14T05:19:46.874Z,52.61
2017-12-14T05:20:46.866Z,52.52
2017-12-14T05:21:46.860Z,52.71
2017-12-14T05:22:46.850Z,52.52
2017-12-14T05:23:46.845Z,52.52
2017-12-14T05:24:46.838Z,52.42
2017-12-14T05:25:46.829Z,52.61
2017-12-14T05:26:46.819Z,52.81
2017-12-14T05:27:46.812Z,52.42
2017-12-14T05:28:46.805Z,52.42
2017-12-14T05:29:46.807Z,52.33
2017-12-14T05:30:46.792Z,52.04
2017-12-14T05:31:46.783Z,52.52
2017-12-14T05:32:46.777Z,52.16
2017-12-14T05:33:46.770Z,52.23
2017-12-14T05:34:46.760Z,52.33
2017-12-14T05:35:46.756Z,52.06
2017-12-14T05:36:46.747Z,52.52
2017-12-14T05:37:46.739Z,51.84
2017-12-14T05:38:46.730Z,52.04
2017-12-14T05:39:46.724Z,52.16
2017-12-14T05:40:46.713Z,52.42
2017-12-14T05:41:46.709Z,52.23
2017-12-14T05:42:46.700Z,52.33
2017-12-14T05:43:46.693Z,52.33
2017-12-14T05:44:46.686Z,52.13
2017-12-14T05:45:46.676Z,51.84
2017-12-14T05:46:46.669Z,51.94
2017-12-14T05:47:46.662Z,51.94
2017-12-14T05:48:46.655Z,52.06
2017-12-14T05:49:46.648Z,52.04
2017-12-14T05:50:46.641Z,52.23
2017-12-14T05:51:46.631Z,51.84
2017-12-14T05:52:46.625Z,51.65
2017-12-14T05:53:46.617Z,51.65
2017-12-14T05:54:46.609Z,51.58
2017-12-14T05:55:46.600Z,51.36
2017-12-14T05:56:46.595Z,51.84
2017-12-14T05:57:46.587Z,51.36
2017-12-14T05:58:46.580Z,51.46
2017-12-14T05:59:46.575Z,51.36
2017-12-14T06:00:46.563Z,51.48
2017-12-14T06:01:46.557Z,51.46
2017-12-14T06:02:46.548Z,51.46
2017-12-14T06:03:46.542Z,51.46
2017-12-14T06:04:46.533Z,51.39
2017-12-14T06:05:46.527Z,51.75
2017-12-14T06:06:46.518Z,51.56
2017-12-14T06:07:46.512Z,51.46
2017-12-14T06:08:46.504Z,51.75
2017-12-14T06:09:46.496Z,51.75
2017-12-14T06:10:46.488Z,51.75
2017-12-14T06:11:46.481Z,51.46
2017-12-14T06:12:46.473Z,51.26
2017-12-14T06:13:46.465Z,51.36
2017-12-14T06:14:46.457Z,51.46
2017-12-14T06:15:46.450Z,51.65
2017-12-14T06:16:46.443Z,51.75
2017-12-14T06:17:46.435Z,51.56
2017-12-14T06:18:46.426Z,51.46
2017-12-14T06:19:46.419Z,51.75
2017-12-14T06:20:46.413Z,51.36
2017-12-14T06:21:46.406Z,51.36
2017-12-14T06:22:46.397Z,51.56
2017-12-14T06:23:46.390Z,51.65
2017-12-14T06:24:46.381Z,51.56
2017-12-14T06:25:46.373Z,51.65
2017-12-14T06:26:46.366Z,51.56
2017-12-14T06:27:46.360Z,51.46
2017-12-14T06:28:46.351Z,51.65
2017-12-14T06:29:46.344Z,51.56
2017-12-14T06:30:46.335Z,51.65
2017-12-14T06:31:46.329Z,51.65
2017-12-14T06:32:46.327Z,51.56
2017-12-14T06:33:46.314Z,51.75
2017-12-14T06:34:46.305Z,51.56
2017-12-14T06:35:46.300Z,51.84
2017-12-14T06:36:46.324Z,51.75
2017-12-14T06:37:46.283Z,51.65
2017-12-14T06:38:46.294Z,51.56
2017-12-14T06:39:46.268Z,51.36
2017-12-14T06:40:46.262Z,51.36
2017-12-14T06:41:46.253Z,51.65
2017-12-14T06:42:46.244Z,51.17
2017-12-14T06:43:46.240Z,51.36
2017-12-14T06:44:46.231Z,51.07
2017-12-14T06:45:46.222Z,51.17
2017-12-14T06:46:46.214Z,51.07
2017-12-14T06:47:46.206Z,51.26
2017-12-14T06:48:46.199Z,51.26
2017-12-14T06:49:46.192Z,51.56
2017-12-14T06:50:46.184Z,51.26
2017-12-14T06:51:46.176Z,51.26
2017-12-14T06:52:46.169Z,50.88
2017-12-14T06:53:46.161Z,50.98
2017-12-14T06:54:46.153Z,50.88
2017-12-14T06:55:46.147Z,50.88
2017-12-14T06:56:46.139Z,50.88
2017-12-14T06:57:46.130Z,50.78
2017-12-14T06:58:46.124Z,50.88
2017-12-14T06:59:46.116Z,50.88
2017-12-14T07:00:46.108Z,50.69
2017-12-14T07:01:46.104Z,50.59
2017-12-14T07:02:46.091Z,50.78
2017-12-14T07:03:46.085Z,50.59
2017-12-14T07:04:46.078Z,50.88
2017-12-14T07:05:46.069Z,50.69
2017-12-14T07:06:46.063Z,50.59
2017-12-14T07:07:46.053Z,50.40
2017-12-14T07:08:46.046Z,50.49
2017-12-14T07:09:46.039Z,50.59
2017-12-14T07:10:46.031Z,50.49
2017-12-14T07:11:46.026Z,50.49
2017-12-14T07:12:46.019Z,50.49
2017-12-14T07:13:46.009Z,50.59
2017-12-14T07:14:46.001Z,50.69
2017-12-14T07:15:45.994Z,50.59
2017-12-14T07:16:45.988Z,50.98
2017-12-14T07:17:45.979Z,50.81
2017-12-14T07:18:45.969Z,50.78
2017-12-14T07:19:45.963Z,50.78
2017-12-14T07:20:46.009Z,50.78
2017-12-14T07:21:45.948Z,50.78
2017-12-14T07:22:45.938Z,50.78
2017-12-14T07:23:45.931Z,50.78
2017-12-14T07:24:45.927Z,50.69
2017-12-14T07:25:45.916Z,50.40
2017-12-14T07:26:45.914Z,50.88
2017-12-14T07:27:45.901Z,50.69
2017-12-14T07:28:45.893Z,50.49
2017-12-14T07:29:45.889Z,50.30
2017-12-14T07:30:45.878Z,50.30
2017-12-14T07:31:45.875Z,50.30
2017-12-14T07:32:45.864Z,50.30
2017-12-14T07:33:45.857Z,50.30
2017-12-14T07:34:45.850Z,50.30
2017-12-14T07:35:45.842Z,50.40
2017-12-14T07:36:45.833Z,50.21
2017-12-14T07:37:45.825Z,50.49
2017-12-14T07:38:45.817Z,50.49
2017-12-14T07:39:45.810Z,50.59
2017-12-14T07:40:45.803Z,50.49
2017-12-14T07:41:45.795Z,50.30
2017-12-14T07:42:45.787Z,50.11
2017-12-14T07:43:45.780Z,50.78
2017-12-14T07:44:45.771Z,50.40
2017-12-14T07:45:45.765Z,50.49
2017-12-14T07:46:45.755Z,50.30
2017-12-14T07:47:45.749Z,50.49
2017-12-14T07:48:45.742Z,50.30
2017-12-14T07:49:45.736Z,50.11
2017-12-14T07:50:45.726Z,50.11
2017-12-14T07:51:45.719Z,50.49
2017-12-14T07:52:45.710Z,50.30
2017-12-14T07:53:45.703Z,50.30
2017-12-14T07:54:45.695Z,50.40
2017-12-14T07:55:45.688Z,50.21
2017-12-14T07:56:45.681Z,50.21
2017-12-14T07:57:45.673Z,50.21
2017-12-14T07:58:45.666Z,50.59
2017-12-14T07:59:45.658Z,50.59
2017-12-14T08:00:45.719Z,50.40
2017-12-14T08:01:45.642Z,50.30
2017-12-14T08:02:45.637Z,50.40
2017-12-14T08:03:45.629Z,50.62
2017-12-14T08:04:45.620Z,50.69
2017-12-14T08:05:45.613Z,50.69
2017-12-14T08:06:45.604Z,50.62
2017-12-14T08:07:45.598Z,50.59
2017-12-14T08:08:45.589Z,50.40
2017-12-14T08:09:45.580Z,50.69
2017-12-14T08:10:45.574Z,50.30
2017-12-14T08:11:45.566Z,50.52
2017-12-14T08:12:45.561Z,50.23
2017-12-14T08:13:45.551Z,49.84
2017-12-14T08:14:45.543Z,49.84
2017-12-14T08:15:45.536Z,49.75
2017-12-14T08:16:45.529Z,49.39
2017-12-14T08:17:45.525Z,49.48
2017-12-14T08:18:45.512Z,49.19
2017-12-14T08:19:45.506Z,48.71
2017-12-14T08:20:45.498Z,48.52
2017-12-14T08:21:45.491Z,48.61
2017-12-14T08:22:45.482Z,48.71
2017-12-14T08:23:45.478Z,48.81
2017-12-14T08:24:45.469Z,48.93
2017-12-14T08:25:45.462Z,48.35
2017-12-14T08:26:45.452Z,48.54
2017-12-14T08:27:45.446Z,48.28
2017-12-14T08:28:45.440Z,47.91
2017-12-14T08:29:45.433Z,46.68
2017-12-14T08:30:45.425Z,46.32
2017-12-14T08:31:45.417Z,45.86
2017-12-14T08:32:45.409Z,45.01
2017-12-14T08:33:45.404Z,44.43
2017-12-14T08:34:45.396Z,44.04
2017-12-14T08:35:45.388Z,43.65
2017-12-14T08:36:45.381Z,44.04
2017-12-14T08:37:45.375Z,44.23
2017-12-14T08:38:45.366Z,44.21
2017-12-14T08:39:45.361Z,44.48
2017-12-14T08:40:45.352Z,44.77
2017-12-14T08:41:45.347Z,45.33
2017-12-14T08:42:45.338Z,45.81
2017-12-14T08:43:45.334Z,46.08
2017-12-14T08:44:45.324Z,45.69
2017-12-14T08:45:45.319Z,46.66
2017-12-14T08:46:45.309Z,46.92
2017-12-14T08:47:45.305Z,47.02
2017-12-14T08:48:45.293Z,46.71
2017-12-14T08:49:45.290Z,47.19
2017-12-14T08:50:45.281Z,47.38
2017-12-14T08:51:45.273Z,47.19
2017-12-14T08:52:45.265Z,47.67
2017-12-14T08:53:45.260Z,47.55
2017-12-14T08:54:45.251Z,47.85
2017-12-14T08:55:45.245Z,48.33
2017-12-14T08:56:45.238Z,48.03
2017-12-14T08:57:45.231Z,47.85
2017-12-14T08:58:45.223Z,48.03
2017-12-14T08:59:45.215Z,47.85
2017-12-14T09:00:45.211Z,48.71
2017-12-14T09:01:45.227Z,48.52
2017-12-14T09:02:45.195Z,48.40
2017-12-14T09:03:45.185Z,48.30
2017-12-14T09:04:45.179Z,48.40
2017-12-14T09:05:45.185Z,48.11
2017-12-14T09:06:45.164Z,48.40
2017-12-14T09:07:45.154Z,48.21
2017-12-14T09:08:45.148Z,48.30
2017-12-14T09:09:45.140Z,48.49
2017-12-14T09:10:45.132Z,48.49
2017-12-14T09:11:45.128Z,48.40
2017-12-14T09:12:45.118Z,48.40
2017-12-14T09:13:45.110Z,48.59
2017-12-14T09:14:45.101Z,48.49
2017-12-14T09:15:45.096Z,48.49
2017-12-14T09:16:45.089Z,48.69
2017-12-14T09:17:45.083Z,48.88
2017-12-14T09:18:45.077Z,48.69
2017-12-14T09:19:45.065Z,48.79
2017-12-14T09:20:45.059Z,48.79
2017-12-14T09:21:45.050Z,48.88
2017-12-14T09:22:45.044Z,48.79
2017-12-14T09:23:45.035Z,48.79
2017-12-14T09:24:45.029Z,48.69
2017-12-14T09:25:45.022Z,48.79
2017-12-14T09:26:45.019Z,48.69
2017-12-14T09:27:45.006Z,48.59
2017-12-14T09:28:44.998Z,48.69
2017-12-14T09:29:44.993Z,49.37
2017-12-14T09:30:44.982Z,49.17
2017-12-14T09:31:44.977Z,49.27
2017-12-14T09:32:44.968Z,48.95
2017-12-14T09:33:44.961Z,49.05
2017-12-14T09:34:44.953Z,49.05
2017-12-14T09:35:44.944Z,48.88
2017-12-14T09:36:44.938Z,48.88
2017-12-14T09:37:44.930Z,49.07
2017-12-14T09:38:44.922Z,49.05
2017-12-14T09:39:44.914Z,49.05
2017-12-14T09:40:44.910Z,49.05
2017-12-14T09:41:44.901Z,49.15
2017-12-14T09:42:44.892Z,48.49
2017-12-14T09:43:44.896Z,48.88
2017-12-14T09:44:44.888Z,48.69
2017-12-14T09:45:44.871Z,48.69
2017-12-14T09:46:44.862Z,48.59
2017-12-14T09:47:44.855Z,48.69
2017-12-14T09:48:44.847Z,48.40
2017-12-14T09:49:44.841Z,48.49
2017-12-14T09:50:44.832Z,48.79
2017-12-14T09:51:44.824Z,48.69
2017-12-14T09:52:44.818Z,48.69
2017-12-14T09:53:44.811Z,48.59
2017-12-14T09:54:44.802Z,48.69
2017-12-14T09:55:44.796Z,48.69
2017-12-14T09:56:44.787Z,48.97
2017-12-14T09:57:44.780Z,48.69
2017-12-14T09:58:44.780Z,48.69
2017-12-14T09:59:44.764Z,48.59
2017-12-14T10:00:44.757Z,48.69
2017-12-14T10:01:44.751Z,48.69
2017-12-14T10:02:44.743Z,48.59
2017-12-14T10:03:44.734Z,48.69
2017-12-14T10:04:44.728Z,48.88
2017-12-14T10:05:44.721Z,48.79
2017-12-14T10:06:44.711Z,48.59
2017-12-14T10:07:44.704Z,48.79
2017-12-14T10:08:44.697Z,48.40
2017-12-14T10:09:44.690Z,48.69
2017-12-14T10:10:44.681Z,48.59
2017-12-14T10:11:44.674Z,48.40
2017-12-14T10:12:44.667Z,48.40
2017-12-14T10:13:44.659Z,48.21
2017-12-14T10:14:44.651Z,48.30
2017-12-14T10:15:44.647Z,48.11
2017-12-14T10:16:44.638Z,48.21
2017-12-14T10:17:44.629Z,48.21
2017-12-14T10:18:44.629Z,48.21
2017-12-14T10:19:44.613Z,48.30
2017-12-14T10:20:44.607Z,48.21
2017-12-14T10:21:44.598Z,48.30
2017-12-14T10:22:44.592Z,48.21
2017-12-14T10:23:44.585Z,48.21
2017-12-14T10:24:44.578Z,48.21
2017-12-14T10:25:44.569Z,48.21
2017-12-14T10:26:44.563Z,48.30
2017-12-14T10:27:44.576Z,48.49
2017-12-14T10:28:44.549Z,48.30
2017-12-14T10:29:44.541Z,48.59
2017-12-14T10:30:44.533Z,48.40
2017-12-14T10:31:44.525Z,48.40
2017-12-14T10:32:44.518Z,48.59
2017-12-14T10:33:44.512Z,48.49
2017-12-14T10:34:44.502Z,48.30
2017-12-14T10:35:44.495Z,48.21
2017-12-14T10:36:44.489Z,48.30
2017-12-14T10:37:44.480Z,48.21
2017-12-14T10:38:44.475Z,48.40
2017-12-14T10:39:44.465Z,48.30
2017-12-14T10:40:44.461Z,48.40
2017-12-14T10:41:44.451Z,48.49
2017-12-14T10:42:44.443Z,48.59
2017-12-14T10:43:44.435Z,48.69
2017-12-14T10:44:44.428Z,48.88
2017-12-14T10:45:44.420Z,48.69
2017-12-14T10:46:44.413Z,48.59
2017-12-14T10:47:44.405Z,48.59
2017-12-14T10:48:44.412Z,48.49
2017-12-14T10:49:44.390Z,48.49
2017-12-14T10:50:44.382Z,48.49
2017-12-14T10:51:44.374Z,48.79
2017-12-14T10:52:44.367Z,48.49
2017-12-14T10:53:44.389Z,48.79
2017-12-14T10:54:44.353Z,48.88
2017-12-14T10:55:44.345Z,48.76
2017-12-14T10:56:44.339Z,48.76
2017-12-14T10:57:44.331Z,48.66
2017-12-14T10:58:44.323Z,48.69
2017-12-14T10:59:44.319Z,48.79
2017-12-14T11:00:44.312Z,48.69
2017-12-14T11:01:44.299Z,48.79
2017-12-14T11:02:44.292Z,48.76
2017-12-14T11:03:44.285Z,48.57
2017-12-14T11:04:44.280Z,48.57
2017-12-14T11:05:44.271Z,48.66
2017-12-14T11:06:44.262Z,48.76
2017-12-14T11:07:44.257Z,48.79
2017-12-14T11:08:44.247Z,48.59
2017-12-14T11:09:44.240Z,48.79
2017-12-14T11:10:44.232Z,48.40
2017-12-14T11:11:44.225Z,48.59
2017-12-14T11:12:44.217Z,48.86
2017-12-14T11:13:44.211Z,48.40
2017-12-14T11:14:44.201Z,48.49
2017-12-14T11:15:44.194Z,48.40
2017-12-14T11:16:44.186Z,48.30
2017-12-14T11:17:44.179Z,48.59
2017-12-14T11:18:44.172Z,48.11
2017-12-14T11:19:44.165Z,48.40
2017-12-14T11:20:44.156Z,48.40
2017-12-14T11:21:44.155Z,48.21
2017-12-14T11:22:44.141Z,48.49
2017-12-14T11:23:44.134Z,48.59
2017-12-14T11:24:44.130Z,48.59
2017-12-14T11:25:44.120Z,48.40
2017-12-14T11:26:44.112Z,48.21
2017-12-14T11:27:44.105Z,48.49
2017-12-14T11:28:44.096Z,48.49
2017-12-14T11:29:44.090Z,48.49
2017-12-14T11:30:44.081Z,48.59
2017-12-14T11:31:44.075Z,48.59
2017-12-14T11:32:44.067Z,48.49
2017-12-14T11:33:44.107Z,48.40
2017-12-14T11:34:44.050Z,48.40
2017-12-14T11:35:44.043Z,48.49
2017-12-14T11:36:44.042Z,48.21
2017-12-14T11:37:44.030Z,48.11
2017-12-14T11:38:44.023Z,48.49
2017-12-14T11:39:44.017Z,48.30
2017-12-14T11:40:44.006Z,48.49
2017-12-14T11:41:43.999Z,48.30
2017-12-14T11:42:43.991Z,48.49
2017-12-14T11:43:43.984Z,48.30
2017-12-14T11:44:43.977Z,48.59
2017-12-14T11:45:43.970Z,48.30
2017-12-14T11:46:43.961Z,48.40
2017-12-14T11:47:43.955Z,48.30
2017-12-14T11:48:43.947Z,48.21
2017-12-14T11:49:43.941Z,48.21
2017-12-14T11:50:43.934Z,48.21
2017-12-14T11:51:43.926Z,48.21
2017-12-14T11:52:43.916Z,48.21
2017-12-14T11:53:43.911Z,48.21
2017-12-14T11:54:43.905Z,48.21
2017-12-14T11:55:43.894Z,48.11
2017-12-14T11:56:43.886Z,48.30
2017-12-14T11:57:43.880Z,48.11
2017-12-14T11:58:43.871Z,48.21
2017-12-14T11:59:43.864Z,48.40
2017-12-14T12:00:43.856Z,48.40
2017-12-14T12:01:43.850Z,48.30
2017-12-14T12:02:43.842Z,48.30
2017-12-14T12:03:43.834Z,48.38
2017-12-14T12:04:43.825Z,48.21
2017-12-14T12:05:43.822Z,48.21
2017-12-14T12:06:43.811Z,48.21
2017-12-14T12:07:43.804Z,48.40
2017-12-14T12:08:43.796Z,48.28
2017-12-14T12:09:43.790Z,48.59
2017-12-14T12:10:43.783Z,48.40
2017-12-14T12:11:43.774Z,48.38
2017-12-14T12:12:43.766Z,48.59
2017-12-14T12:13:43.760Z,48.30
2017-12-14T12:14:43.751Z,48.28
2017-12-14T12:15:43.744Z,48.38
2017-12-14T12:16:43.735Z,48.30
2017-12-14T12:17:43.729Z,48.57
2017-12-14T12:18:43.722Z,48.28
2017-12-14T12:19:43.715Z,48.28
2017-12-14T12:20:43.705Z,48.28
2017-12-14T12:21:43.699Z,48.18
2017-12-14T12:22:43.691Z,48.08
2017-12-14T12:23:43.687Z,48.28
2017-12-14T12:24:43.675Z,48.57
2017-12-14T12:25:43.670Z,48.28
2017-12-14T12:26:43.658Z,48.28
2017-12-14T12:27:43.653Z,48.28
2017-12-14T12:28:43.646Z,48.40
2017-12-14T12:29:43.638Z,48.30
2017-12-14T12:30:43.630Z,48.21
2017-12-14T12:31:43.622Z,48.21
2017-12-14T12:32:43.682Z,48.40
2017-12-14T12:33:43.607Z,48.30
2017-12-14T12:34:43.600Z,48.40
2017-12-14T12:35:43.592Z,48.49
2017-12-14T12:36:43.584Z,48.40
2017-12-14T12:37:43.578Z,48.49
2017-12-14T12:38:43.570Z,48.11
2017-12-14T12:39:43.562Z,48.21
2017-12-14T12:40:43.555Z,48.49
2017-12-14T12:41:43.550Z,48.40
2017-12-14T12:42:43.572Z,48.40
2017-12-14T12:43:43.532Z,48.59
2017-12-14T12:44:43.529Z,48.49
2017-12-14T12:45:43.533Z,48.49
2017-12-14T12:46:43.529Z,48.49
2017-12-14T12:47:43.502Z,48.59
2017-12-14T12:48:43.496Z,48.59
2017-12-14T12:49:43.489Z,48.69
2017-12-14T12:50:43.480Z,48.40
2017-12-14T12:51:43.474Z,48.49
2017-12-14T12:52:43.466Z,48.59